Portada
METAR-TAF:

METAR-TAF

Aeroports :

Santa Maria, Rio Grande do Sul, Brasil

latitud: 29-43S, longitud: 053-42W, altitud: 85 m

Observació

L'informe es va fer fa 40 minuts, a les 00:00 UTC
Vent 8 kt del Est/Sud-Est
Temperatura 10°C
Humitat 100%
Pressió 1013 hPa
Visibilitat 10 km o més
Cel cobert a una alçada de 500 ft
pluja

METAR: SBSM 130000Z 11008KT 9999 -RA OVC005 10/10 Q1013

Hora: 21:40 (00:40 UTC)

Pronòstic

L'informe es va fer fa 3 hores i 40 minuts, a les 21:00 UTC
Pronòstic vàlid del 13 a les 00 UTC al 13 a les 12 UTC
Vent 5 kt del Est/Sud-Est
Visibilitat: 6000 m
Cel ennuvolat a una alçada de 600 ft
Evolucionant progressivament
l' 13 a les 02 UTC al 13 a les 04 UTC
Visibilitat: 3000 m
Cel ennuvolat a una alçada de 300 ft
Cel cobert a una alçada de 600 ft
boirina

TAF: SBSM 122100Z 1300/1312 11005KT 6000 BKN006 TN09/1306Z TX11/1312Z BECMG 1302/1304 3000 BR BKN003 OVC006 RMK PDW

Observacions i pronòstics meteorològics de més de 4000 aeroports (METAR i TAF).

Les estacions disponibles són els punts grocs i vermells al mapa.

Posi el ratolí al punt desitjat per veure el nom de l'estació.

Feu clic per veure les observacions i els pronòstics meteorològics.

Per canviar el mapa: feu clic els botons verds amb una creu de color negre per apropar; al botó verd amb un guió per allunyar la imatge; o en les fletxes verdes per a mapes adjacents.


METAR-TAF: